createdAt,value
2018-01-06T00:00:00.794Z,98586.16
2018-01-06T00:02:28.301Z,98600.44
2018-01-06T00:04:56.648Z,98599.17
2018-01-06T00:07:24.120Z,98596.29
2018-01-06T00:09:51.583Z,98597.97
2018-01-06T00:12:19.048Z,98599.29
2018-01-06T00:14:46.558Z,98603.91
2018-01-06T00:17:14.223Z,98607.70
2018-01-06T00:19:41.748Z,98606.05
2018-01-06T00:22:09.219Z,98595.02
2018-01-06T00:24:37.499Z,98586.17
2018-01-06T00:27:04.963Z,98593.75
2018-01-06T00:29:32.465Z,98598.81
2018-01-06T00:32:00.029Z,98616.58
2018-01-06T00:34:27.507Z,98605.55
2018-01-06T00:36:54.963Z,98612.73
2018-01-06T00:39:22.507Z,98617.30
2018-01-06T00:41:49.974Z,98620.69
2018-01-06T00:44:17.728Z,98617.38
2018-01-06T00:46:45.226Z,98617.02
2018-01-06T00:49:12.700Z,98618.30
2018-01-06T00:51:40.253Z,98629.31
2018-01-06T00:54:08.438Z,98630.96
2018-01-06T00:56:36.007Z,98627.53
2018-01-06T00:59:03.525Z,98627.56
2018-01-06T01:01:31.056Z,98633.87
2018-01-06T01:03:58.519Z,98631.78
2018-01-06T01:06:26.264Z,98626.27
2018-01-06T01:08:53.777Z,98636.45
2018-01-06T01:11:21.237Z,98644.05
2018-01-06T01:13:48.768Z,98643.63
2018-01-06T01:16:16.401Z,98644.92
2018-01-06T01:18:43.891Z,98648.25
2018-01-06T01:21:11.438Z,98658.36
2018-01-06T01:23:38.957Z,98662.17
2018-01-06T01:26:06.427Z,98660.48
2018-01-06T01:28:34.062Z,98656.28
2018-01-06T01:31:01.577Z,98652.05
2018-01-06T01:33:29.086Z,98657.56
2018-01-06T01:35:56.596Z,98657.17
2018-01-06T01:38:24.048Z,98648.34
2018-01-06T01:40:51.568Z,98648.39
2018-01-06T01:43:19.043Z,98644.66
2018-01-06T01:45:46.520Z,98646.34
2018-01-06T01:48:13.990Z,98655.61
2018-01-06T01:50:41.463Z,98659.41
2018-01-06T01:53:08.928Z,98653.52
2018-01-06T01:55:36.420Z,98654.36
2018-01-06T01:58:03.887Z,98651.84
2018-01-06T02:00:31.344Z,98653.09
2018-01-06T02:02:58.853Z,98658.59
2018-01-06T02:05:26.384Z,98657.32
2018-01-06T02:07:53.871Z,98666.66
2018-01-06T02:10:21.319Z,98665.02
2018-01-06T02:12:49.007Z,98664.61
2018-01-06T02:15:16.913Z,98669.30
2018-01-06T02:17:44.437Z,98665.49
2018-01-06T02:20:11.937Z,98660.42
2018-01-06T02:22:39.390Z,98651.58
2018-01-06T02:25:06.891Z,98654.97
2018-01-06T02:27:34.347Z,98651.17
2018-01-06T02:30:01.861Z,98649.52
2018-01-06T02:32:29.315Z,98652.05
2018-01-06T02:34:56.776Z,98649.52
2018-01-06T02:37:24.264Z,98656.31
2018-01-06T02:39:51.756Z,98657.55
2018-01-06T02:42:19.220Z,98663.03
2018-01-06T02:44:46.713Z,98668.92
2018-01-06T02:47:14.196Z,98673.08
2018-01-06T02:49:43.106Z,98668.84
2018-01-06T02:52:10.566Z,98671.71
2018-01-06T02:54:38.092Z,98667.88
2018-01-06T02:57:05.552Z,98671.19
2018-01-06T02:59:32.999Z,98666.53
2018-01-06T03:02:00.471Z,98668.95
2018-01-06T03:04:27.926Z,98675.27
2018-01-06T03:06:55.421Z,98675.67
2018-01-06T03:09:22.894Z,98673.11
2018-01-06T03:11:50.541Z,98683.20
2018-01-06T03:14:18.088Z,98679.84
2018-01-06T03:16:45.540Z,98680.64
2018-01-06T03:19:13.020Z,98682.73
2018-01-06T03:21:40.518Z,98680.59
2018-01-06T03:24:07.988Z,98689.03
2018-01-06T03:26:35.648Z,98697.83
2018-01-06T03:29:03.112Z,98698.69
2018-01-06T03:31:30.615Z,98690.70
2018-01-06T03:33:58.090Z,98691.58
2018-01-06T03:36:25.709Z,98685.70
2018-01-06T03:38:53.199Z,98689.99
2018-01-06T03:41:20.668Z,98678.19
2018-01-06T03:43:48.151Z,98681.58
2018-01-06T03:46:15.742Z,98695.13
2018-01-06T03:48:43.195Z,98708.22
2018-01-06T03:51:10.857Z,98702.78
2018-01-06T03:53:38.327Z,98702.36
2018-01-06T03:56:06.687Z,98709.17
2018-01-06T03:58:34.517Z,98710.06
2018-01-06T04:01:01.976Z,98722.31
2018-01-06T04:03:29.452Z,98727.41
2018-01-06T04:05:56.914Z,98747.25
2018-01-06T04:08:24.375Z,98748.52
2018-01-06T04:10:51.886Z,98736.25
2018-01-06T04:13:19.357Z,98742.19
2018-01-06T04:15:46.806Z,98740.08
2018-01-06T04:18:14.298Z,98735.83
2018-01-06T04:20:41.760Z,98743.45
2018-01-06T04:23:09.223Z,98743.00
2018-01-06T04:25:36.690Z,98739.66
2018-01-06T04:28:04.210Z,98741.01
2018-01-06T04:30:31.691Z,98755.77
2018-01-06T04:32:59.167Z,98755.38
2018-01-06T04:35:26.641Z,98746.55
2018-01-06T04:37:54.106Z,98743.59
2018-01-06T04:40:21.581Z,98745.72
2018-01-06T04:42:49.115Z,98749.92
2018-01-06T04:45:16.696Z,98752.03
2018-01-06T04:47:44.198Z,98755.42
2018-01-06T04:50:11.668Z,98753.72
2018-01-06T04:52:39.169Z,98756.27
2018-01-06T04:55:06.631Z,98759.63
2018-01-06T04:57:34.084Z,98766.80
2018-01-06T05:00:01.542Z,98768.49
2018-01-06T05:02:28.994Z,98775.66
2018-01-06T05:04:56.455Z,98784.53
2018-01-06T05:07:23.909Z,98797.59
2018-01-06T05:09:51.389Z,98803.91
2018-01-06T05:12:18.843Z,98816.97
2018-01-06T05:14:46.311Z,98820.35
2018-01-06T05:17:13.814Z,98814.44
2018-01-06T05:19:41.311Z,98814.45
2018-01-06T05:22:08.801Z,98823.29
2018-01-06T05:24:36.257Z,98813.60
2018-01-06T05:27:03.718Z,98815.27
2018-01-06T05:29:31.191Z,98809.37
2018-01-06T05:31:58.701Z,98802.64
2018-01-06T05:34:26.164Z,98808.11
2018-01-06T05:36:53.608Z,98807.70
2018-01-06T05:39:21.088Z,98809.81
2018-01-06T05:41:48.536Z,98820.35
2018-01-06T05:44:16.181Z,98827.52
2018-01-06T05:46:43.661Z,98827.94
2018-01-06T05:49:11.116Z,98832.56
2018-01-06T05:51:38.580Z,98826.25
2018-01-06T05:54:06.051Z,98830.88
2018-01-06T05:56:33.610Z,98834.67
2018-01-06T05:59:01.107Z,98841.00
2018-01-06T06:01:28.557Z,98843.09
2018-01-06T06:03:56.023Z,98835.09
2018-01-06T06:06:23.532Z,98837.22
2018-01-06T06:08:50.985Z,98842.70
2018-01-06T06:11:18.443Z,98839.75
2018-01-06T06:13:45.910Z,98838.45
2018-01-06T06:16:13.409Z,98841.84
2018-01-06T06:18:40.870Z,98845.21
2018-01-06T06:21:08.323Z,98843.92
2018-01-06T06:23:35.780Z,98853.59
2018-01-06T06:26:03.533Z,98852.33
2018-01-06T06:28:31.000Z,98852.30
2018-01-06T06:30:58.483Z,98854.39
2018-01-06T06:33:25.939Z,98854.81
2018-01-06T06:35:53.403Z,98858.58
2018-01-06T06:38:20.900Z,98856.02
2018-01-06T06:40:48.346Z,98853.03
2018-01-06T06:43:15.803Z,98853.86
2018-01-06T06:45:43.304Z,98848.30
2018-01-06T06:48:10.768Z,98847.88
2018-01-06T06:50:38.227Z,98850.80
2018-01-06T06:53:05.841Z,98869.36
2018-01-06T06:55:33.307Z,98870.58
2018-01-06T06:58:00.772Z,98876.47
2018-01-06T07:00:28.697Z,98875.08
2018-01-06T07:02:56.163Z,98875.45
2018-01-06T07:05:23.675Z,98874.62
2018-01-06T07:07:51.124Z,98875.00
2018-01-06T07:10:18.577Z,98878.33
2018-01-06T07:12:46.466Z,98880.41
2018-01-06T07:15:14.001Z,98886.75
2018-01-06T07:17:41.536Z,98888.41
2018-01-06T07:20:08.989Z,98893.45
2018-01-06T07:22:36.565Z,98900.59
2018-01-06T07:25:04.084Z,98900.56
2018-01-06T07:27:31.535Z,98907.27
2018-01-06T07:29:59.147Z,98910.18
2018-01-06T07:32:26.622Z,98911.83
2018-01-06T07:34:54.076Z,98911.80
2018-01-06T07:37:21.537Z,98909.21
2018-01-06T07:39:49.014Z,98918.45
2018-01-06T07:42:16.455Z,98917.55
2018-01-06T07:44:43.911Z,98922.55
2018-01-06T07:47:11.496Z,98927.13
2018-01-06T07:49:39.129Z,98923.29
2018-01-06T07:52:06.581Z,98928.73
2018-01-06T07:54:34.131Z,98932.86
2018-01-06T07:57:01.576Z,98932.27
2018-01-06T07:59:29.034Z,98938.47
2018-01-06T08:01:56.492Z,98930.31
2018-01-06T08:04:23.964Z,98941.37
2018-01-06T08:06:51.502Z,98938.33
2018-01-06T08:09:19.061Z,98937.48
2018-01-06T08:11:46.508Z,98938.33
2018-01-06T08:14:14.148Z,98931.05
2018-01-06T08:16:41.604Z,98939.85
2018-01-06T08:19:09.087Z,98935.50
2018-01-06T08:21:36.552Z,98935.85
2018-01-06T08:24:04.204Z,98925.59
2018-01-06T08:26:31.611Z,98937.39
2018-01-06T08:28:59.120Z,98948.27
2018-01-06T08:31:26.570Z,98949.84
2018-01-06T08:33:54.616Z,98951.84
2018-01-06T08:36:22.113Z,98945.77
2018-01-06T08:38:49.556Z,98955.91
2018-01-06T08:41:17.020Z,98954.94
2018-01-06T08:43:44.504Z,98953.58
2018-01-06T08:46:11.975Z,98947.54
2018-01-06T08:48:39.463Z,98949.48
2018-01-06T08:51:06.924Z,98954.47
2018-01-06T08:53:34.541Z,98951.91
2018-01-06T08:56:02.004Z,98951.06
2018-01-06T08:58:29.472Z,98945.87
2018-01-06T09:00:58.157Z,98948.75
2018-01-06T09:03:25.615Z,98951.09
2018-01-06T09:05:53.109Z,98953.92
2018-01-06T09:08:20.578Z,98950.70
2018-01-06T09:10:48.286Z,98954.77
2018-01-06T09:13:15.756Z,98953.87
2018-01-06T09:15:43.212Z,98958.19
2018-01-06T09:18:10.735Z,98960.38
2018-01-06T09:20:38.215Z,98952.61
2018-01-06T09:23:05.676Z,98952.91
2018-01-06T09:25:33.193Z,98958.85
2018-01-06T09:28:00.653Z,98959.46
2018-01-06T09:30:28.135Z,98961.30
2018-01-06T09:32:55.608Z,98955.95
2018-01-06T09:35:23.076Z,98961.71
2018-01-06T09:37:50.526Z,98953.66
2018-01-06T09:40:18.308Z,98961.42
2018-01-06T09:45:19.491Z,98960.68
2018-01-06T09:47:46.999Z,98962.75
2018-01-06T09:50:14.913Z,98961.59
2018-01-06T09:52:42.948Z,98956.11
2018-01-06T09:55:10.395Z,98952.40
2018-01-06T09:57:37.864Z,98947.50
2018-01-06T10:00:06.657Z,98954.18
2018-01-06T10:02:34.107Z,98944.01
2018-01-06T10:05:01.563Z,98945.12
2018-01-06T10:07:29.024Z,98938.86
2018-01-06T10:09:56.472Z,98931.38
2018-01-06T10:12:25.069Z,98932.66
2018-01-06T10:14:52.515Z,98923.84
2018-01-06T10:17:19.987Z,98931.06
2018-01-06T10:19:47.451Z,98931.91
2018-01-06T10:22:14.966Z,98931.92
2018-01-06T10:24:42.456Z,98928.95
2018-01-06T10:27:09.923Z,98931.42
2018-01-06T10:29:37.379Z,98933.06
2018-01-06T10:32:04.877Z,98923.16
2018-01-06T10:34:32.337Z,98911.91
2018-01-06T10:36:59.820Z,98911.08
2018-01-06T10:39:27.363Z,98904.91
2018-01-06T10:41:54.854Z,98907.72
2018-01-06T10:44:22.316Z,98900.82
2018-01-06T10:46:49.791Z,98899.07
2018-01-06T10:49:18.310Z,98885.73
2018-01-06T10:51:45.768Z,98895.03
2018-01-06T10:54:13.243Z,98886.52
2018-01-06T10:56:40.761Z,98890.42
2018-01-06T10:59:08.353Z,98890.72
2018-01-06T11:01:41.453Z,98893.19
2018-01-06T11:04:08.959Z,98885.62
2018-01-06T11:06:36.424Z,98875.88
2018-01-06T11:09:04.161Z,98881.25
2018-01-06T11:11:31.644Z,98878.28
2018-01-06T11:13:59.137Z,98877.23
2018-01-06T11:16:26.688Z,98886.99
2018-01-06T11:18:54.442Z,98885.28
2018-01-06T11:21:21.924Z,98886.78
2018-01-06T11:23:49.424Z,98882.44
2018-01-06T11:26:16.904Z,98877.24
2018-01-06T11:28:44.420Z,98873.63
2018-01-06T11:31:11.894Z,98874.26
2018-01-06T11:33:39.472Z,98876.09
2018-01-06T11:36:07.031Z,98876.27
2018-01-06T11:38:34.512Z,98873.48
2018-01-06T11:41:02.028Z,98879.70
2018-01-06T11:43:29.522Z,98870.05
2018-01-06T11:45:56.996Z,98868.00
2018-01-06T11:48:24.613Z,98872.27
2018-01-06T11:50:52.104Z,98868.92
2018-01-06T11:53:19.660Z,98865.44
2018-01-06T11:55:47.158Z,98864.45
2018-01-06T11:58:14.640Z,98866.17
2018-01-06T12:00:42.144Z,98866.95
2018-01-06T12:03:09.635Z,98864.03
2018-01-06T12:05:37.104Z,98862.47
2018-01-06T12:08:04.565Z,98863.31
2018-01-06T12:10:32.060Z,98875.60
2018-01-06T12:12:59.552Z,98862.91
2018-01-06T12:15:27.084Z,98867.70
2018-01-06T12:17:54.562Z,98865.92
2018-01-06T12:20:22.069Z,98863.70
2018-01-06T12:22:49.553Z,98868.79
2018-01-06T12:25:17.112Z,98860.84
2018-01-06T12:27:44.578Z,98859.41
2018-01-06T12:30:12.046Z,98854.67
2018-01-06T12:32:39.538Z,98855.42
2018-01-06T12:35:06.991Z,98853.23
2018-01-06T12:37:34.468Z,98851.30
2018-01-06T12:40:01.953Z,98847.02
2018-01-06T12:42:29.438Z,98846.55
2018-01-06T12:44:56.907Z,98848.59
2018-01-06T12:47:24.467Z,98846.56
2018-01-06T12:49:51.988Z,98839.47
2018-01-06T12:52:19.457Z,98842.52
2018-01-06T12:54:46.948Z,98848.59
2018-01-06T12:57:14.417Z,98848.39
2018-01-06T12:59:41.920Z,98852.61
2018-01-06T13:02:09.467Z,98848.45
2018-01-06T13:04:36.937Z,98848.89
2018-01-06T13:07:04.411Z,98849.30
2018-01-06T13:09:31.894Z,98855.27
2018-01-06T13:11:59.408Z,98852.41
2018-01-06T13:14:26.959Z,98857.14
2018-01-06T13:16:54.417Z,98850.81
2018-01-06T13:19:21.877Z,98852.53
2018-01-06T13:21:49.356Z,98848.58
2018-01-06T13:24:16.823Z,98848.65
2018-01-06T13:26:44.304Z,98850.89
2018-01-06T13:29:11.794Z,98849.20
2018-01-06T13:31:39.273Z,98855.25
2018-01-06T13:34:06.748Z,98849.67
2018-01-06T13:36:34.853Z,98851.20
2018-01-06T13:39:02.361Z,98849.44
2018-01-06T13:41:29.842Z,98854.80
2018-01-06T13:43:57.318Z,98861.66
2018-01-06T13:46:24.819Z,98856.61
2018-01-06T13:48:52.333Z,98862.19
2018-01-06T13:51:19.813Z,98854.06
2018-01-06T13:53:47.302Z,98858.44
2018-01-06T13:56:14.781Z,98862.86
2018-01-06T13:58:42.329Z,98865.79
2018-01-06T14:01:09.805Z,98865.46
2018-01-06T14:03:37.281Z,98859.09
2018-01-06T14:06:04.821Z,98868.45
2018-01-06T14:08:32.337Z,98867.11
2018-01-06T14:10:59.831Z,98871.96
2018-01-06T14:13:27.312Z,98875.01
2018-01-06T14:15:54.824Z,98882.72
2018-01-06T14:18:22.299Z,98882.65
2018-01-06T14:20:49.766Z,98875.73
2018-01-06T14:23:17.256Z,98873.73
2018-01-06T14:25:44.756Z,98872.14
2018-01-06T14:28:13.104Z,98879.47
2018-01-06T14:30:40.599Z,98883.40
2018-01-06T14:33:08.067Z,98888.02
2018-01-06T14:35:35.524Z,98880.05
2018-01-06T14:38:03.049Z,98885.00
2018-01-06T14:40:30.614Z,98892.34
2018-01-06T14:42:58.289Z,98891.22
2018-01-06T14:45:25.794Z,98890.05
2018-01-06T14:47:53.259Z,98889.52
2018-01-06T14:50:20.880Z,98891.80
2018-01-06T14:52:48.381Z,98892.50
2018-01-06T14:55:15.836Z,98892.61
2018-01-06T14:57:43.336Z,98894.83
2018-01-06T15:00:10.896Z,98896.09
2018-01-06T15:02:38.379Z,98897.64
2018-01-06T15:05:05.866Z,98900.24
2018-01-06T15:07:33.384Z,98898.55
2018-01-06T15:10:00.860Z,98896.95
2018-01-06T15:12:28.337Z,98902.09
2018-01-06T15:14:55.856Z,98903.00
2018-01-06T15:17:23.437Z,98906.78
2018-01-06T15:19:51.005Z,98906.52
2018-01-06T15:22:18.469Z,98910.87
2018-01-06T15:24:46.062Z,98917.28
2018-01-06T15:27:13.548Z,98912.19
2018-01-06T15:29:41.086Z,98915.73
2018-01-06T15:32:08.584Z,98918.23
2018-01-06T15:34:36.063Z,98917.85
2018-01-06T15:37:03.546Z,98928.52
2018-01-06T15:39:31.190Z,98923.84
2018-01-06T15:41:58.682Z,98925.08
2018-01-06T15:44:26.198Z,98932.77
2018-01-06T15:46:53.723Z,98929.09
2018-01-06T15:49:21.235Z,98924.88
2018-01-06T15:51:48.742Z,98930.87
2018-01-06T15:54:16.224Z,98928.41
2018-01-06T15:56:43.701Z,98937.36
2018-01-06T15:59:11.963Z,98931.03
2018-01-06T16:01:39.460Z,98936.90
2018-01-06T16:04:07.197Z,98934.77
2018-01-06T16:06:34.749Z,98939.02
2018-01-06T16:09:02.239Z,98939.75
2018-01-06T16:11:29.724Z,98940.67
2018-01-06T16:13:57.217Z,98941.56
2018-01-06T16:16:24.744Z,98948.37
2018-01-06T16:18:52.270Z,98944.16
2018-01-06T16:21:19.854Z,98946.66
2018-01-06T16:23:47.366Z,98943.69
2018-01-06T16:26:14.843Z,98938.77
2018-01-06T16:28:42.902Z,98947.38
2018-01-06T16:31:10.356Z,98949.47
2018-01-06T16:33:37.903Z,98945.64
2018-01-06T16:36:05.866Z,98950.31
2018-01-06T16:38:33.352Z,98948.81
2018-01-06T16:41:01.101Z,98953.05
2018-01-06T16:43:28.604Z,98948.39
2018-01-06T16:45:56.144Z,98956.03
2018-01-06T16:48:23.689Z,98950.55
2018-01-06T16:50:51.168Z,98948.85
2018-01-06T16:53:18.731Z,98959.42
2018-01-06T16:55:46.996Z,98956.41
2018-01-06T16:58:14.468Z,98951.36
2018-01-06T17:00:41.958Z,98952.98
2018-01-06T17:03:09.452Z,98957.30
2018-01-06T17:05:36.952Z,98957.72
2018-01-06T17:08:04.444Z,98955.56
2018-01-06T17:10:32.085Z,98959.00
2018-01-06T17:12:59.541Z,98961.84
2018-01-06T17:15:27.019Z,98963.05
2018-01-06T17:17:54.486Z,98957.48
2018-01-06T17:20:22.013Z,98962.58
2018-01-06T17:22:49.549Z,98963.52
2018-01-06T17:25:17.050Z,98956.72
2018-01-06T17:27:44.610Z,98959.65
2018-01-06T17:36:10.526Z,98975.39
2018-01-06T17:38:37.984Z,98977.20
2018-01-06T17:41:05.521Z,98978.91
2018-01-06T17:43:33.028Z,98977.48
2018-01-06T17:46:00.511Z,98975.39
2018-01-06T17:48:28.013Z,98979.25
2018-01-06T17:50:55.973Z,98978.02
2018-01-06T17:53:23.449Z,98976.04
2018-01-06T17:55:50.957Z,98977.28
2018-01-06T17:58:18.435Z,98977.27
2018-01-06T18:00:45.958Z,98988.20
2018-01-06T18:03:13.468Z,98983.98
2018-01-06T18:05:40.946Z,98983.48
2018-01-06T18:08:08.617Z,98990.31
2018-01-06T18:10:36.138Z,98985.72
2018-01-06T18:13:03.593Z,98984.41
2018-01-06T18:15:31.061Z,98980.67
2018-01-06T18:17:58.539Z,98987.34
2018-01-06T18:20:26.032Z,98983.81
2018-01-06T18:22:53.633Z,98979.23
2018-01-06T18:25:21.126Z,98988.58
2018-01-06T18:27:48.702Z,98987.26
2018-01-06T18:30:16.194Z,98996.05
2018-01-06T18:32:43.677Z,98995.59
2018-01-06T18:35:11.165Z,98996.47
2018-01-06T18:37:38.723Z,98998.89
2018-01-06T18:40:06.210Z,99008.70
2018-01-06T18:42:33.692Z,99004.03
2018-01-06T18:45:01.173Z,99007.05
2018-01-06T18:47:28.665Z,99006.92
2018-01-06T18:49:56.655Z,99012.49
2018-01-06T18:52:24.189Z,99019.53
2018-01-06T18:54:51.694Z,99018.39
2018-01-06T18:57:19.178Z,99014.27
2018-01-06T18:59:46.664Z,99019.38
2018-01-06T19:02:14.154Z,99017.71
2018-01-06T19:04:41.704Z,99022.80
2018-01-06T19:07:09.204Z,99021.50
2018-01-06T19:09:36.986Z,99022.77
2018-01-06T19:12:04.494Z,99018.94
2018-01-06T19:14:32.053Z,99022.30
2018-01-06T19:16:59.548Z,99022.26
2018-01-06T19:19:27.028Z,99016.61
2018-01-06T19:21:54.720Z,99022.97
2018-01-06T19:24:22.248Z,99021.62
2018-01-06T19:26:49.743Z,99021.64
2018-01-06T19:29:17.329Z,99026.76
2018-01-06T19:31:44.801Z,99034.78
2018-01-06T19:34:12.447Z,99036.53
2018-01-06T19:36:39.979Z,99038.17
2018-01-06T19:39:07.460Z,99034.78
2018-01-06T19:41:34.963Z,99045.27
2018-01-06T19:44:02.445Z,99045.74
2018-01-06T19:46:29.917Z,99054.23
2018-01-06T19:48:57.431Z,99054.20
2018-01-06T19:51:25.343Z,99053.34
2018-01-06T19:53:52.907Z,99058.53
2018-01-06T19:56:20.412Z,99066.65
2018-01-06T19:58:47.901Z,99063.25
2018-01-06T20:01:15.388Z,99073.45
2018-01-06T20:03:42.958Z,99068.40
2018-01-06T20:06:10.477Z,99073.11
2018-01-06T20:08:38.030Z,99079.88
2018-01-06T20:11:05.573Z,99078.64
2018-01-06T20:13:33.045Z,99079.10
2018-01-06T20:16:00.546Z,99080.03
2018-01-06T20:18:28.063Z,99086.79
2018-01-06T20:20:55.610Z,99086.36
2018-01-06T20:23:23.175Z,99089.22
2018-01-06T20:25:50.678Z,99095.92
2018-01-06T20:28:18.224Z,99094.70
2018-01-06T20:30:45.854Z,99087.05
2018-01-06T20:33:13.385Z,99086.23
2018-01-06T20:35:40.973Z,99088.41
2018-01-06T20:38:08.583Z,99087.98
2018-01-06T20:40:36.343Z,99091.30
2018-01-06T20:43:04.005Z,99100.69
2018-01-06T20:45:31.697Z,99104.90
2018-01-06T20:47:59.223Z,99110.50
2018-01-06T20:50:26.854Z,99109.69
2018-01-06T20:52:54.529Z,99113.98
2018-01-06T20:55:22.199Z,99113.98
2018-01-06T20:57:49.981Z,99115.30
2018-01-06T21:00:17.610Z,99116.95
2018-01-06T21:02:45.234Z,99125.80
2018-01-06T21:05:12.926Z,99124.56
2018-01-06T21:07:40.542Z,99129.69
2018-01-06T21:10:08.040Z,99137.73
2018-01-06T21:12:36.316Z,99141.55
2018-01-06T21:15:03.796Z,99142.41
2018-01-06T21:17:31.287Z,99143.72
2018-01-06T21:19:58.844Z,99144.06
2018-01-06T21:22:26.337Z,99143.22
2018-01-06T21:24:53.836Z,99146.66
2018-01-06T21:27:21.369Z,99148.84
2018-01-06T21:29:48.853Z,99147.30
2018-01-06T21:32:17.334Z,99139.66
2018-01-06T21:34:44.818Z,99144.45
2018-01-06T21:37:12.389Z,99143.98
2018-01-06T21:39:39.923Z,99148.92
2018-01-06T21:42:07.511Z,99143.19
2018-01-06T21:44:36.208Z,99146.45
2018-01-06T21:47:03.677Z,99151.59
2018-01-06T21:49:31.163Z,99158.31
2018-01-06T21:51:58.839Z,99163.96
2018-01-06T21:54:26.577Z,99169.48
2018-01-06T21:56:54.044Z,99177.91
2018-01-06T21:59:21.539Z,99180.84
2018-01-06T22:01:49.029Z,99189.06
2018-01-06T22:04:16.506Z,99184.47
2018-01-06T22:06:43.999Z,99190.45
2018-01-06T22:09:11.474Z,99196.00
2018-01-06T22:11:38.968Z,99193.00
2018-01-06T22:14:06.429Z,99197.25
2018-01-06T22:16:33.896Z,99199.05
2018-01-06T22:19:01.481Z,99199.89
2018-01-06T22:21:28.997Z,99202.84
2018-01-06T22:23:56.473Z,99211.43
2018-01-06T22:26:23.960Z,99207.94
2018-01-06T22:28:51.504Z,99214.83
2018-01-06T22:31:18.992Z,99210.45
2018-01-06T22:33:46.451Z,99209.11
2018-01-06T22:36:13.996Z,99203.23
2018-01-06T22:38:41.510Z,99203.72
2018-01-06T22:41:08.969Z,99206.91
2018-01-06T22:43:36.428Z,99211.97
2018-01-06T22:46:03.914Z,99217.92
2018-01-06T22:48:31.372Z,99215.09
2018-01-06T22:50:58.924Z,99216.01
2018-01-06T22:53:26.421Z,99212.54
2018-01-06T22:55:53.901Z,99218.03
2018-01-06T22:58:21.394Z,99214.56
2018-01-06T23:00:49.797Z,99210.59
2018-01-06T23:03:17.310Z,99211.58
2018-01-06T23:05:44.777Z,99211.16
2018-01-06T23:08:12.244Z,99210.16
2018-01-06T23:10:39.711Z,99210.09
2018-01-06T23:13:07.190Z,99212.36
2018-01-06T23:15:34.645Z,99217.18
2018-01-06T23:18:02.133Z,99217.67
2018-01-06T23:20:29.591Z,99223.69
2018-01-06T23:22:57.076Z,99233.91
2018-01-06T23:25:24.577Z,99238.37
2018-01-06T23:27:52.151Z,99237.95
2018-01-06T23:30:19.629Z,99244.80
2018-01-06T23:32:47.127Z,99240.21
2018-01-06T23:35:14.613Z,99245.76
2018-01-06T23:37:42.089Z,99246.16
2018-01-06T23:40:09.584Z,99246.58
2018-01-06T23:42:37.128Z,99238.45
2018-01-06T23:45:04.602Z,99250.80
2018-01-06T23:47:32.116Z,99239.70
2018-01-06T23:49:59.596Z,99244.12
2018-01-06T23:52:27.056Z,99245.20
2018-01-06T23:54:54.531Z,99251.67
2018-01-06T23:57:21.986Z,99256.84
2018-01-06T23:59:49.452Z,99257.64
